Powell, WY (82435)

5:38 AM MDT on September 17, 2014 (GMT -0600)
Crestview Estates | Change Station
CLOSE
Current Station
Personal Weather Station
Location: Powell, WY
Elevation: 4507 ft
Nearby Weather Stations

Elev 4507 ft 44.75 °N, 108.82 °W | Updated 0 second ago

Partly Cloudy
Partly Cloudy
53.6 °F
Feels Like 53.6 °F
N
8.1
Wind Variable Wind from West
Gusts 8.1 mph

Today
High -- | Low -- °F
--% Chance of Precip.
Yesterday
High -- | Low -- °F
Precip. -- in
6:56 AM 7:22 PM
Last Quarter, 37% visible
Pressure 30.05 in
Visibility 10.0 miles
Clouds Clear
Dew Point 46 °F
Humidity 74%
Rainfall 0.00 in
Snow Depth 0 in , 0 in , 0 in
UV 0 out of 12
Pollen 6.00 out of 12
Air Quality Not available.
Flu Activity Not available.
METAR KCOD 171115Z AUTO 17005KT 10SM CLR 13/05 A3005 RMK AO1

More Conditions Fewer Conditions

Pressure 30.05 in
Visibility 10.0 miles
Clouds Clear
Dew Point 46 °F
Humidity 74%
Rainfall 0.00 in
Snow Depth 0 in , 0 in , 0 in
UV 0 out of 12
Pollen 6.00 out of 12
Air Quality Not available.
Flu Activity Not available.
METAR KCOD 171115Z AUTO 17005KT 10SM CLR 13/05 A3005 RMK AO1

More Conditions Fewer Conditions

10-Day Weather Forecast

Almanac

Astronomy

Sep. 17, 2014 Rise Set
Actual Time 6:56 AM MDT 7:22 PM MDT
Civil Twilight 6:27 AM MDT 7:51 PM MDT
Nautical Twilight 5:52 AM MDT 8:26 PM MDT
Astronomical Twilight 5:16 AM MDT 9:01 PM MDT
Moon 12:48 AM MDT 3:44 PM MDT
Length of Visible Light 13h 24m
Length of Day
12h 25m
Tomorrow will be 3m 5s shorter.
Last Quarter, 37% of the Moon is Illuminated
Today
Last Quarter
Sep 24
New
Oct 1
First Quarter
Oct 8
Full
Oct 15
Last Quarter

Today's Extremes

State Highs State Lows

Community

WunderPhotos

Upload Photos

1,754,003 photos uploaded!

Nearby

Snow Depth

Station Depth Elevation
Spring Creek Divide 0 in 9000 ft
Sand Lake 0 in 10050 ft
Webber Springs 0 in 9250 ft
Lewis Lake Divide 0 in 7850 ft
Cinnabar Park 0 in 9690 ft

Earthquake Activity

City Distance Mag. Time & Date
No recent earthquake activity has been reported nearby.
Minimum magnitude displayed is 2.5.

Coastal Water Temperatures

Place Temperature
No Stations Reporting

Nearby Weather Stations